createdAt,value
2023-09-28T00:01:16.069Z,4.68
2023-09-28T00:03:46.639Z,5.28
2023-09-28T00:06:14.666Z,4.40
2023-09-28T00:08:41.743Z,4.88
2023-09-28T00:11:08.734Z,4.47
2023-09-28T00:13:35.713Z,4.35
2023-09-28T00:16:02.848Z,4.28
2023-09-28T00:18:30.542Z,4.13
2023-09-28T00:21:00.375Z,3.78
2023-09-28T00:23:27.974Z,4.13
2023-09-28T00:25:55.062Z,3.90
2023-09-28T00:28:21.977Z,4.00
2023-09-28T00:30:49.942Z,4.28
2023-09-28T00:33:17.064Z,3.65
2023-09-28T00:35:44.244Z,3.55
2023-09-28T00:38:11.761Z,4.32
2023-09-28T00:40:42.325Z,4.05
2023-09-28T00:43:11.620Z,4.10
2023-09-28T00:45:41.294Z,4.35
2023-09-28T00:48:10.908Z,3.65
2023-09-28T00:50:38.096Z,4.07
2023-09-28T00:53:11.662Z,4.07
2023-09-28T00:55:40.241Z,3.65
2023-09-28T00:58:07.246Z,4.22
2023-09-28T01:00:35.165Z,4.32
2023-09-28T01:03:07.541Z,4.10
2023-09-28T01:05:35.696Z,4.30
2023-09-28T01:08:09.164Z,4.10
2023-09-28T01:10:39.540Z,4.15
2023-09-28T01:13:13.824Z,3.70
2023-09-28T01:15:42.368Z,3.78
2023-09-28T01:18:16.400Z,4.07
2023-09-28T01:20:45.329Z,3.60
2023-09-28T01:23:12.386Z,4.10
2023-09-28T01:25:40.789Z,4.20
2023-09-28T01:28:08.552Z,3.90
2023-09-28T01:30:36.162Z,4.00
2023-09-28T01:33:04.292Z,3.60
2023-09-28T01:35:31.727Z,4.20
2023-09-28T01:38:14.211Z,3.88
2023-09-28T01:40:43.264Z,3.85
2023-09-28T01:43:11.538Z,3.70
2023-09-28T01:45:38.501Z,3.85
2023-09-28T01:48:06.147Z,3.70
2023-09-28T01:50:34.161Z,4.05
2023-09-28T01:53:01.554Z,3.50
2023-09-28T01:55:28.522Z,4.22
2023-09-28T01:57:55.557Z,3.97
2023-09-28T02:04:22.803Z,3.80
2023-09-28T02:06:49.758Z,4.43
2023-09-28T02:09:19.015Z,3.90
2023-09-28T02:11:46.784Z,3.95
2023-09-28T02:14:14.205Z,5.72
2023-09-28T02:16:41.315Z,4.40
2023-09-28T02:19:12.422Z,5.95
2023-09-28T02:21:39.618Z,9.23
2023-09-28T02:24:08.614Z,7.53
2023-09-28T02:26:35.698Z,4.63
2023-09-28T02:29:03.321Z,4.07
2023-09-28T02:31:30.249Z,9.05
2023-09-28T02:33:59.133Z,4.50
2023-09-28T02:36:31.997Z,4.78
2023-09-28T02:38:58.993Z,3.83
2023-09-28T02:41:26.033Z,3.65
2023-09-28T02:43:53.370Z,5.53
2023-09-28T02:46:20.669Z,4.60
2023-09-28T02:48:47.643Z,3.38
2023-09-28T02:51:14.643Z,3.70
2023-09-28T02:53:41.639Z,4.80
2023-09-28T02:56:09.227Z,3.85
2023-09-28T02:58:37.026Z,4.00
2023-09-28T03:01:04.730Z,4.00
2023-09-28T03:03:31.981Z,3.85
2023-09-28T03:05:59.709Z,3.60
2023-09-28T03:08:26.648Z,3.75
2023-09-28T03:10:53.701Z,3.63
2023-09-28T03:13:20.824Z,3.55
2023-09-28T03:15:47.747Z,3.53
2023-09-28T03:18:15.244Z,3.53
2023-09-28T03:20:46.150Z,3.72
2023-09-28T03:23:13.718Z,3.83
2023-09-28T03:25:40.684Z,3.85
2023-09-28T03:28:07.799Z,4.15
2023-09-28T03:30:34.833Z,3.45
2023-09-28T03:33:01.932Z,3.90
2023-09-28T03:35:28.913Z,3.38
2023-09-28T03:37:57.962Z,3.65
2023-09-28T03:40:25.584Z,3.55
2023-09-28T03:42:53.022Z,3.95
2023-09-28T03:45:22.758Z,4.60
2023-09-28T03:47:54.121Z,4.28
2023-09-28T03:50:23.049Z,4.20
2023-09-28T03:52:52.858Z,4.18
2023-09-28T03:55:23.398Z,4.30
2023-09-28T03:57:52.078Z,3.92
2023-09-28T04:00:21.063Z,4.10
2023-09-28T04:02:53.561Z,4.25
2023-09-28T04:05:25.687Z,4.18
2023-09-28T04:07:53.059Z,4.50
2023-09-28T04:10:23.886Z,4.13
2023-09-28T04:12:53.432Z,4.00
2023-09-28T04:15:20.593Z,4.65
2023-09-28T04:17:47.730Z,4.75
2023-09-28T04:20:14.881Z,4.30
2023-09-28T04:22:41.863Z,4.75
2023-09-28T04:25:09.173Z,4.30
2023-09-28T04:27:36.258Z,3.58
2023-09-28T04:30:05.031Z,4.15
2023-09-28T04:32:32.621Z,3.40
2023-09-28T04:35:00.268Z,4.38
2023-09-28T04:37:27.443Z,4.15
2023-09-28T04:39:54.537Z,4.60
2023-09-28T04:42:21.767Z,3.47
2023-09-28T04:44:50.262Z,3.92
2023-09-28T04:47:17.569Z,3.58
2023-09-28T04:49:46.089Z,3.72
2023-09-28T04:52:13.277Z,4.28
2023-09-28T04:54:40.844Z,5.18
2023-09-28T04:57:07.780Z,4.35
2023-09-28T04:59:41.953Z,4.00
2023-09-28T05:02:10.005Z,4.05
2023-09-28T05:04:37.253Z,3.70
2023-09-28T05:07:05.384Z,4.30
2023-09-28T05:09:33.062Z,3.80
2023-09-28T05:12:04.353Z,3.88
2023-09-28T05:14:32.605Z,3.92
2023-09-28T05:17:00.054Z,4.18
2023-09-28T05:19:27.210Z,4.78
2023-09-28T05:21:54.752Z,3.72
2023-09-28T05:24:22.109Z,4.30
2023-09-28T05:26:49.919Z,4.03
2023-09-28T05:29:17.342Z,3.70
2023-09-28T05:31:46.039Z,4.22
2023-09-28T05:34:13.117Z,5.13
2023-09-28T05:36:40.180Z,4.90
2023-09-28T05:39:09.509Z,4.83
2023-09-28T05:41:36.571Z,5.40
2023-09-28T05:44:03.669Z,4.50
2023-09-28T05:46:31.482Z,4.65
2023-09-28T05:48:58.422Z,3.95
2023-09-28T05:51:25.261Z,4.32
2023-09-28T05:53:54.590Z,4.68
2023-09-28T05:56:22.541Z,4.10
2023-09-28T05:58:49.849Z,3.83
2023-09-28T06:01:18.723Z,3.92
2023-09-28T06:03:45.791Z,4.57
2023-09-28T06:06:20.726Z,4.10
2023-09-28T06:08:48.338Z,3.70
2023-09-28T06:11:16.986Z,4.00
2023-09-28T06:14:00.961Z,3.33
2023-09-28T06:16:32.466Z,3.05
2023-09-28T06:18:59.779Z,3.53
2023-09-28T06:21:26.919Z,3.33
2023-09-28T06:23:54.958Z,3.15
2023-09-28T06:26:38.957Z,2.97
2023-09-28T06:29:08.810Z,3.13
2023-09-28T06:31:39.884Z,2.78
2023-09-28T06:34:07.560Z,2.78
2023-09-28T06:39:05.966Z,3.65
2023-09-28T06:41:32.895Z,4.25
2023-09-28T06:43:59.929Z,4.00
2023-09-28T06:46:27.250Z,3.97
2023-09-28T06:48:54.542Z,4.50
2023-09-28T06:51:23.210Z,3.97
2023-09-28T06:53:50.503Z,3.42
2023-09-28T06:56:17.701Z,4.68
2023-09-28T06:58:45.019Z,4.10
2023-09-28T07:01:12.022Z,4.15
2023-09-28T07:03:39.066Z,4.03
2023-09-28T07:06:06.656Z,3.58
2023-09-28T07:08:33.932Z,3.80
2023-09-28T07:11:01.133Z,3.78
2023-09-28T07:13:28.507Z,3.22
2023-09-28T07:15:58.327Z,3.30
2023-09-28T07:18:27.230Z,3.42
2023-09-28T07:20:54.869Z,3.28
2023-09-28T07:23:21.950Z,3.58
2023-09-28T07:25:52.251Z,3.53
2023-09-28T07:28:19.517Z,3.30
2023-09-28T07:30:46.861Z,3.42
2023-09-28T07:33:16.896Z,3.40
2023-09-28T07:35:45.161Z,2.90
2023-09-28T07:38:12.781Z,3.05
2023-09-28T07:40:47.818Z,3.25
2023-09-28T07:43:16.174Z,3.17
2023-09-28T07:45:43.742Z,2.97
2023-09-28T07:48:10.794Z,3.28
2023-09-28T07:50:37.787Z,3.10
2023-09-28T07:53:04.903Z,3.58
2023-09-28T07:55:32.230Z,3.72
2023-09-28T07:58:08.559Z,3.60
2023-09-28T08:00:46.808Z,3.38
2023-09-28T08:03:14.251Z,3.17
2023-09-28T08:05:41.287Z,3.10
2023-09-28T08:08:15.889Z,3.60
2023-09-28T08:10:45.503Z,3.63
2023-09-28T08:13:14.609Z,3.20
2023-09-28T08:15:42.897Z,3.60
2023-09-28T08:18:10.818Z,3.22
2023-09-28T08:20:40.541Z,3.28
2023-09-28T08:23:10.992Z,3.50
2023-09-28T08:25:38.276Z,3.80
2023-09-28T08:28:05.719Z,3.55
2023-09-28T08:30:32.600Z,3.45
2023-09-28T08:33:02.342Z,3.67
2023-09-28T08:35:30.553Z,3.58
2023-09-28T08:37:57.645Z,3.92
2023-09-28T08:40:25.823Z,3.70
2023-09-28T08:42:55.984Z,3.15
2023-09-28T08:45:24.873Z,3.20
2023-09-28T08:47:52.456Z,3.10
2023-09-28T08:50:29.215Z,3.83
2023-09-28T08:52:57.963Z,3.63
2023-09-28T08:55:26.186Z,3.70
2023-09-28T08:57:54.216Z,3.50
2023-09-28T09:00:24.906Z,3.85
2023-09-28T09:03:00.344Z,3.92
2023-09-28T09:05:30.510Z,3.92
2023-09-28T09:08:00.910Z,2.83
2023-09-28T09:10:29.516Z,3.40
2023-09-28T09:12:56.487Z,3.20
2023-09-28T09:15:25.569Z,3.17
2023-09-28T09:18:04.598Z,3.70
2023-09-28T09:20:31.619Z,3.58
2023-09-28T09:23:14.776Z,3.03
2023-09-28T09:25:48.328Z,3.13
2023-09-28T09:28:35.840Z,3.00
2023-09-28T09:31:03.264Z,3.40
2023-09-28T09:33:30.609Z,3.47
2023-09-28T09:35:57.757Z,3.10
2023-09-28T09:38:28.799Z,3.63
2023-09-28T09:41:00.452Z,3.47
2023-09-28T09:43:37.798Z,4.03
2023-09-28T09:46:08.765Z,3.28
2023-09-28T09:48:42.012Z,3.78
2023-09-28T09:51:13.344Z,3.55
2023-09-28T09:53:42.113Z,3.40
2023-09-28T09:56:10.679Z,3.10
2023-09-28T09:58:41.485Z,3.15
2023-09-28T10:01:13.643Z,3.00
2023-09-28T10:03:52.347Z,3.22
2023-09-28T10:06:23.298Z,4.30
2023-09-28T10:08:51.343Z,3.25
2023-09-28T10:11:19.345Z,3.50
2023-09-28T10:13:49.961Z,3.05
2023-09-28T10:16:19.264Z,3.30
2023-09-28T10:18:48.661Z,3.50
2023-09-28T10:21:16.589Z,3.05
2023-09-28T10:23:43.705Z,3.08
2023-09-28T10:26:18.675Z,3.25
2023-09-28T10:29:08.533Z,2.88
2023-09-28T10:31:56.312Z,3.60
2023-09-28T10:34:26.259Z,3.28
2023-09-28T10:37:19.953Z,3.42
2023-09-28T10:39:52.704Z,3.30
2023-09-28T10:42:21.879Z,3.58
2023-09-28T10:44:57.149Z,3.53
2023-09-28T10:47:24.889Z,3.55
2023-09-28T10:50:05.810Z,3.30
2023-09-28T10:52:32.983Z,3.55
2023-09-28T10:55:00.953Z,3.45
2023-09-28T10:57:32.792Z,3.65
2023-09-28T11:00:05.205Z,3.22
2023-09-28T11:02:38.787Z,3.10
2023-09-28T11:05:09.978Z,3.13
2023-09-28T11:07:37.631Z,3.03
2023-09-28T11:10:05.796Z,3.17
2023-09-28T11:12:32.862Z,2.95
2023-09-28T11:15:00.079Z,3.70
2023-09-28T11:17:27.538Z,3.13
2023-09-28T11:19:57.673Z,3.20
2023-09-28T11:22:24.651Z,3.50
2023-09-28T11:24:52.042Z,2.80
2023-09-28T11:27:19.255Z,3.60
2023-09-28T11:29:46.312Z,3.70
2023-09-28T11:32:13.238Z,3.70
2023-09-28T11:34:40.311Z,3.67
2023-09-28T11:37:11.168Z,3.67
2023-09-28T11:39:39.968Z,3.20
2023-09-28T11:42:08.454Z,3.25
2023-09-28T11:44:36.256Z,3.47
2023-09-28T11:47:06.426Z,3.90
2023-09-28T11:49:38.122Z,4.00
2023-09-28T11:52:05.289Z,3.67
2023-09-28T11:54:33.532Z,4.15
2023-09-28T11:57:00.606Z,3.63
2023-09-28T11:59:28.047Z,4.00
2023-09-28T12:01:56.708Z,4.15
2023-09-28T12:04:23.883Z,4.20
2023-09-28T12:06:50.878Z,4.15
2023-09-28T12:09:19.056Z,3.53
2023-09-28T12:11:47.199Z,4.22
2023-09-28T12:14:14.237Z,4.40
2023-09-28T12:16:46.634Z,4.38
2023-09-28T12:19:14.993Z,4.53
2023-09-28T12:21:42.676Z,4.45
2023-09-28T12:24:09.910Z,4.30
2023-09-28T12:26:37.600Z,4.07
2023-09-28T12:29:04.765Z,4.57
2023-09-28T12:31:31.718Z,5.07
2023-09-28T12:33:58.610Z,4.55
2023-09-28T12:36:25.627Z,4.53
2023-09-28T12:38:53.823Z,4.53
2023-09-28T12:41:20.875Z,5.90
2023-09-28T12:43:48.007Z,5.25
2023-09-28T12:46:15.498Z,5.03
2023-09-28T12:48:43.769Z,5.40
2023-09-28T12:51:11.030Z,5.00
2023-09-28T12:53:40.083Z,4.78
2023-09-28T12:56:07.566Z,5.28
2023-09-28T12:58:35.780Z,5.20
2023-09-28T13:01:03.019Z,5.45
2023-09-28T13:03:30.384Z,5.47
2023-09-28T13:05:58.290Z,5.57
2023-09-28T13:08:26.339Z,4.85
2023-09-28T13:10:53.343Z,5.13
2023-09-28T13:13:21.061Z,6.05
2023-09-28T13:15:48.052Z,5.88
2023-09-28T13:18:16.316Z,5.32
2023-09-28T13:20:44.416Z,5.30
2023-09-28T13:23:12.324Z,5.90
2023-09-28T13:25:39.966Z,5.32
2023-09-28T13:28:11.472Z,4.78
2023-09-28T13:30:41.479Z,5.28
2023-09-28T13:33:10.410Z,8.93
2023-09-28T13:35:38.185Z,10.48
2023-09-28T13:38:05.470Z,9.65
2023-09-28T13:40:36.507Z,8.75
2023-09-28T13:43:08.004Z,7.13
2023-09-28T13:45:35.138Z,6.57
2023-09-28T13:48:03.449Z,5.90
2023-09-28T13:50:31.735Z,5.63
2023-09-28T13:52:59.109Z,4.85
2023-09-28T13:55:27.044Z,4.88
2023-09-28T13:57:54.274Z,5.13
2023-09-28T14:00:34.770Z,4.47
2023-09-28T14:03:02.678Z,5.82
2023-09-28T14:05:31.266Z,5.03
2023-09-28T14:08:00.626Z,4.18
2023-09-28T14:10:27.548Z,5.07
2023-09-28T14:12:56.155Z,4.70
2023-09-28T14:15:24.528Z,5.05
2023-09-28T14:17:51.656Z,4.95
2023-09-28T14:20:19.579Z,4.40
2023-09-28T14:22:49.324Z,3.97
2023-09-28T14:25:17.940Z,4.70
2023-09-28T14:27:48.126Z,4.28
2023-09-28T14:30:16.833Z,4.18
2023-09-28T14:32:45.371Z,3.92
2023-09-28T14:35:13.445Z,4.55
2023-09-28T14:37:40.844Z,3.95
2023-09-28T14:40:16.176Z,4.10
2023-09-28T14:42:45.629Z,3.72
2023-09-28T14:45:14.145Z,3.97
2023-09-28T14:47:42.186Z,3.75
2023-09-28T14:50:11.620Z,4.13
2023-09-28T14:52:39.448Z,3.67
2023-09-28T14:55:07.756Z,3.45
2023-09-28T14:57:34.914Z,4.25
2023-09-28T15:00:02.406Z,3.20
2023-09-28T15:02:29.502Z,3.80
2023-09-28T15:04:56.775Z,3.80
2023-09-28T15:07:23.730Z,3.92
2023-09-28T15:09:50.712Z,3.80
2023-09-28T15:12:19.754Z,3.78
2023-09-28T15:14:46.683Z,3.80
2023-09-28T15:17:14.790Z,4.35
2023-09-28T15:19:41.827Z,3.80
2023-09-28T15:22:08.894Z,3.80
2023-09-28T15:24:35.813Z,4.63
2023-09-28T15:27:04.039Z,4.32
2023-09-28T15:29:31.005Z,4.25
2023-09-28T15:31:58.263Z,5.38
2023-09-28T15:34:25.215Z,7.70
2023-09-28T15:36:52.148Z,25.63
2023-09-28T15:39:19.071Z,15.00
2023-09-28T15:41:47.956Z,15.27
2023-09-28T15:44:15.009Z,9.80
2023-09-28T15:46:42.417Z,6.88
2023-09-28T15:49:10.213Z,6.80
2023-09-28T15:51:37.289Z,5.60
2023-09-28T15:54:04.592Z,4.32
2023-09-28T15:56:31.935Z,4.43
2023-09-28T15:58:58.973Z,4.25
2023-09-28T16:01:28.274Z,4.53
2023-09-28T16:03:56.696Z,3.88
2023-09-28T16:06:24.524Z,3.90
2023-09-28T16:08:52.107Z,3.65
2023-09-28T16:11:19.545Z,4.20
2023-09-28T16:13:47.071Z,4.50
2023-09-28T16:16:14.410Z,4.90
2023-09-28T16:18:41.580Z,4.68
2023-09-28T16:21:08.632Z,4.00
2023-09-28T16:23:35.812Z,3.92
2023-09-28T16:26:03.184Z,3.95
2023-09-28T16:28:30.140Z,3.63
2023-09-28T16:30:57.523Z,4.07
2023-09-28T16:33:24.953Z,3.67
2023-09-28T16:35:52.504Z,5.07
2023-09-28T16:38:19.784Z,4.70
2023-09-28T16:40:47.093Z,4.20
2023-09-28T16:43:14.210Z,3.72
2023-09-28T16:45:44.730Z,3.97
2023-09-28T16:48:12.226Z,4.13
2023-09-28T16:50:39.750Z,3.00
2023-09-28T16:53:07.847Z,3.42
2023-09-28T16:55:35.415Z,3.90
2023-09-28T16:58:03.126Z,4.60
2023-09-28T17:00:30.661Z,3.60
2023-09-28T17:02:57.779Z,4.55
2023-09-28T17:05:26.856Z,4.72
2023-09-28T17:07:54.022Z,4.78
2023-09-28T17:10:23.596Z,4.40
2023-09-28T17:12:50.962Z,6.28
2023-09-28T17:15:18.173Z,11.30
2023-09-28T17:17:45.253Z,5.50
2023-09-28T17:20:13.168Z,5.35
2023-09-28T17:22:40.211Z,3.90
2023-09-28T17:25:09.334Z,4.15
2023-09-28T17:27:36.315Z,3.97
2023-09-28T17:30:03.332Z,3.55
2023-09-28T17:32:30.723Z,3.17
2023-09-28T17:34:57.707Z,3.50
2023-09-28T17:37:24.644Z,3.10
2023-09-28T17:39:53.280Z,3.40
2023-09-28T17:42:20.206Z,3.58
2023-09-28T17:44:47.130Z,6.20
2023-09-28T17:47:14.370Z,3.53
2023-09-28T17:49:41.322Z,3.60
2023-09-28T17:52:08.236Z,3.60
2023-09-28T17:54:35.211Z,3.40
2023-09-28T17:57:02.105Z,4.10
2023-09-28T17:59:29.525Z,3.72
2023-09-28T18:01:56.576Z,4.40
2023-09-28T18:04:23.656Z,5.30
2023-09-28T18:06:50.715Z,3.85
2023-09-28T18:09:18.866Z,4.07
2023-09-28T18:11:45.806Z,4.28
2023-09-28T18:14:12.863Z,3.92
2023-09-28T18:16:39.903Z,5.53
2023-09-28T18:19:06.941Z,3.65
2023-09-28T18:21:33.944Z,4.18
2023-09-28T18:24:00.884Z,4.05
2023-09-28T18:26:29.041Z,3.83
2023-09-28T18:28:57.806Z,3.92
2023-09-28T18:31:25.858Z,3.97
2023-09-28T18:33:55.389Z,3.85
2023-09-28T18:36:26.987Z,4.28
2023-09-28T18:39:11.958Z,3.92
2023-09-28T18:41:48.299Z,4.18
2023-09-28T18:44:18.829Z,4.55
2023-09-28T18:46:48.306Z,4.10
2023-09-28T18:49:16.782Z,3.95
2023-09-28T18:51:43.740Z,3.67
2023-09-28T18:54:16.062Z,4.10
2023-09-28T18:56:43.320Z,4.05
2023-09-28T18:59:11.182Z,3.63
2023-09-28T19:01:38.911Z,4.13
2023-09-28T19:04:07.932Z,3.97
2023-09-28T19:06:35.379Z,4.13
2023-09-28T19:09:02.484Z,3.80
2023-09-28T19:11:29.477Z,3.92
2023-09-28T19:13:56.674Z,4.38
2023-09-28T19:16:23.925Z,4.93
2023-09-28T19:18:50.904Z,4.43
2023-09-28T19:21:17.768Z,4.85
2023-09-28T19:23:44.722Z,5.63
2023-09-28T19:26:11.737Z,6.30
2023-09-28T19:28:43.787Z,5.13
2023-09-28T19:31:14.425Z,5.22
2023-09-28T19:33:42.116Z,4.90
2023-09-28T19:36:10.082Z,5.55
2023-09-28T19:38:39.005Z,4.88
2023-09-28T19:41:06.224Z,5.32
2023-09-28T19:43:33.176Z,4.88
2023-09-28T19:46:00.272Z,5.43
2023-09-28T19:48:27.439Z,7.18
2023-09-28T19:50:54.647Z,6.90
2023-09-28T19:53:22.400Z,5.85
2023-09-28T19:55:49.425Z,7.32
2023-09-28T19:58:16.525Z,6.32
2023-09-28T20:00:43.870Z,4.85
2023-09-28T20:03:10.854Z,5.15
2023-09-28T20:05:39.069Z,4.25
2023-09-28T20:08:06.340Z,4.70
2023-09-28T20:10:33.378Z,5.13
2023-09-28T20:13:02.464Z,5.43
2023-09-28T20:15:30.090Z,6.03
2023-09-28T20:17:57.161Z,4.95
2023-09-28T20:20:24.493Z,5.40
2023-09-28T20:22:57.388Z,5.68
2023-09-28T20:25:25.124Z,5.60
2023-09-28T20:27:53.376Z,5.18
2023-09-28T20:30:20.402Z,5.45
2023-09-28T20:32:47.726Z,5.95
2023-09-28T20:35:15.577Z,5.43
2023-09-28T20:37:43.872Z,5.70
2023-09-28T20:40:12.126Z,6.40
2023-09-28T20:42:39.738Z,7.25
2023-09-28T20:45:07.371Z,7.95
2023-09-28T20:47:36.761Z,7.22
2023-09-28T20:50:05.376Z,6.32
2023-09-28T20:52:32.647Z,6.82
2023-09-28T20:54:59.660Z,6.38
2023-09-28T20:57:27.081Z,6.57
2023-09-28T20:59:57.329Z,6.65
2023-09-28T21:02:24.591Z,5.35
2023-09-28T21:04:52.125Z,6.25
2023-09-28T21:07:18.999Z,6.13
2023-09-28T21:09:46.467Z,5.95
2023-09-28T21:12:13.540Z,6.53
2023-09-28T21:14:40.575Z,6.68
2023-09-28T21:17:07.532Z,6.28
2023-09-28T21:19:34.455Z,6.20
2023-09-28T21:22:01.738Z,7.35
2023-09-28T21:24:28.645Z,7.95
2023-09-28T21:26:55.713Z,7.18
2023-09-28T21:29:22.642Z,6.70
2023-09-28T21:31:49.750Z,7.43
2023-09-28T21:34:16.711Z,7.55
2023-09-28T21:36:43.728Z,6.70
2023-09-28T21:39:10.679Z,6.88
2023-09-28T21:41:37.644Z,7.65
2023-09-28T21:44:04.890Z,7.97
2023-09-28T21:46:31.830Z,7.72
2023-09-28T21:48:58.754Z,7.35
2023-09-28T21:51:25.797Z,7.63
2023-09-28T21:53:52.848Z,8.63
2023-09-28T21:56:20.376Z,7.47
2023-09-28T21:58:47.628Z,7.85
2023-09-28T22:01:16.182Z,7.28
2023-09-28T22:03:44.741Z,8.02
2023-09-28T22:06:12.243Z,7.53
2023-09-28T22:08:40.029Z,7.40
2023-09-28T22:11:09.957Z,8.52
2023-09-28T22:13:37.607Z,8.07
2023-09-28T22:16:05.714Z,8.10
2023-09-28T22:18:33.371Z,9.15
2023-09-28T22:21:00.575Z,8.45
2023-09-28T22:23:27.962Z,8.00
2023-09-28T22:25:55.641Z,8.05
2023-09-28T22:28:23.101Z,8.23
2023-09-28T22:30:50.399Z,7.47
2023-09-28T22:33:17.940Z,10.38
2023-09-28T22:35:45.247Z,7.63
2023-09-28T22:38:12.446Z,7.50
2023-09-28T22:40:39.620Z,8.77
2023-09-28T22:43:06.759Z,8.80
2023-09-28T22:45:33.957Z,8.77
2023-09-28T22:48:01.489Z,7.93
2023-09-28T22:50:28.752Z,8.68
2023-09-28T22:52:55.776Z,8.82
2023-09-28T22:55:23.047Z,8.68
2023-09-28T22:57:52.342Z,8.95
2023-09-28T23:00:19.315Z,10.30
2023-09-28T23:02:46.702Z,10.55
2023-09-28T23:05:13.768Z,9.35
2023-09-28T23:07:42.054Z,9.93
2023-09-28T23:10:13.983Z,10.43
2023-09-28T23:12:42.308Z,10.32
2023-09-28T23:15:14.047Z,9.70
2023-09-28T23:17:43.767Z,10.48
2023-09-28T23:20:12.145Z,9.80
2023-09-28T23:22:42.997Z,10.07
2023-09-28T23:25:18.718Z,9.77
2023-09-28T23:27:47.196Z,9.88
2023-09-28T23:30:19.125Z,9.90
2023-09-28T23:32:48.438Z,9.18
2023-09-28T23:35:17.847Z,9.52
2023-09-28T23:37:46.182Z,9.27
2023-09-28T23:40:22.512Z,8.82
2023-09-28T23:42:50.525Z,9.00
2023-09-28T23:45:18.188Z,9.80
2023-09-28T23:47:45.969Z,9.25
2023-09-28T23:50:16.002Z,9.65
2023-09-28T23:52:46.707Z,8.90
2023-09-28T23:55:15.949Z,8.38
2023-09-28T23:57:44.126Z,9.50
